createdAt,value
2018-03-27T00:02:10.399Z,2.60
2018-03-27T00:04:36.513Z,2.60
2018-03-27T00:07:02.625Z,2.67
2018-03-27T00:09:28.727Z,2.49
2018-03-27T00:11:54.892Z,2.68
2018-03-27T00:14:20.947Z,2.75
2018-03-27T00:16:47.035Z,2.46
2018-03-27T00:19:13.179Z,2.43
2018-03-27T00:21:39.272Z,2.39
2018-03-27T00:24:05.677Z,2.31
2018-03-27T00:26:31.816Z,2.22
2018-03-27T00:29:10.039Z,2.24
2018-03-27T00:31:48.401Z,2.19
2018-03-27T00:34:26.600Z,2.12
2018-03-27T00:37:04.788Z,2.29
2018-03-27T00:39:43.027Z,2.41
2018-03-27T00:42:33.973Z,2.21
2018-03-27T00:45:00.109Z,2.48
2018-03-27T00:47:26.189Z,2.35
2018-03-27T00:49:52.327Z,2.40
2018-03-27T00:52:18.417Z,2.40
2018-03-27T00:54:44.520Z,2.43
2018-03-27T00:57:10.900Z,2.40
2018-03-27T00:59:36.984Z,2.32
2018-03-27T01:02:03.077Z,2.28
2018-03-27T01:04:29.262Z,2.37
2018-03-27T01:06:55.377Z,2.47
2018-03-27T01:09:21.467Z,2.47
2018-03-27T01:11:47.540Z,2.52
2018-03-27T01:14:13.676Z,2.48
2018-03-27T01:16:39.800Z,2.32
2018-03-27T01:19:05.876Z,2.33
2018-03-27T01:21:31.943Z,2.35
2018-03-27T01:23:58.031Z,2.53
2018-03-27T01:26:24.107Z,2.57
2018-03-27T01:28:50.217Z,2.61
2018-03-27T01:31:16.261Z,2.57
2018-03-27T01:33:42.394Z,2.59
2018-03-27T01:36:08.553Z,2.61
2018-03-27T01:38:34.666Z,2.43
2018-03-27T01:41:00.700Z,2.38
2018-03-27T01:43:26.784Z,2.41
2018-03-27T01:45:52.896Z,2.56
2018-03-27T01:48:19.021Z,2.55
2018-03-27T01:50:45.068Z,2.58
2018-03-27T01:53:17.658Z,2.66
2018-03-27T01:55:43.837Z,2.72
2018-03-27T01:58:09.948Z,2.67
2018-03-27T02:00:36.087Z,2.68
2018-03-27T02:03:02.216Z,2.63
2018-03-27T02:05:28.236Z,2.69
2018-03-27T02:07:54.186Z,2.59
2018-03-27T02:10:20.229Z,2.62
2018-03-27T02:12:52.265Z,2.88
2018-03-27T02:15:24.531Z,2.77
2018-03-27T02:17:56.642Z,2.68
2018-03-27T02:20:28.729Z,2.51
2018-03-27T02:22:54.871Z,2.30
2018-03-27T02:25:20.945Z,2.26
2018-03-27T02:27:47.034Z,2.26
2018-03-27T02:30:13.135Z,2.20
2018-03-27T02:32:39.296Z,2.11
2018-03-27T02:35:05.396Z,2.24
2018-03-27T02:37:31.468Z,2.27
2018-03-27T02:39:57.531Z,2.13
2018-03-27T02:42:23.626Z,2.16
2018-03-27T02:44:49.671Z,2.31
2018-03-27T02:47:15.727Z,2.26
2018-03-27T02:49:41.751Z,2.12
2018-03-27T02:52:07.803Z,2.07
2018-03-27T02:54:33.812Z,2.15
2018-03-27T02:56:59.905Z,2.19
2018-03-27T02:59:25.933Z,2.10
2018-03-27T03:01:52.063Z,2.15
2018-03-27T03:04:18.124Z,2.07
2018-03-27T03:06:44.213Z,1.94
2018-03-27T03:09:10.227Z,1.92
2018-03-27T03:11:36.293Z,1.91
2018-03-27T03:14:02.326Z,1.84
2018-03-27T03:16:28.441Z,1.82
2018-03-27T03:18:54.455Z,1.78
2018-03-27T03:21:20.456Z,1.90
2018-03-27T03:23:46.464Z,2.03
2018-03-27T03:26:12.462Z,2.13
2018-03-27T03:28:38.530Z,1.97
2018-03-27T03:31:04.727Z,1.86
2018-03-27T03:33:30.761Z,2.02
2018-03-27T03:35:56.809Z,1.96
2018-03-27T03:38:22.865Z,1.97
2018-03-27T03:40:48.922Z,1.95
2018-03-27T03:43:14.966Z,1.94
2018-03-27T03:45:41.005Z,2.12
2018-03-27T03:48:07.029Z,2.25
2018-03-27T03:50:33.137Z,2.11
2018-03-27T03:52:59.201Z,2.13
2018-03-27T03:55:25.234Z,2.19
2018-03-27T03:57:51.257Z,2.20
2018-03-27T04:00:17.376Z,2.30
2018-03-27T04:02:43.558Z,2.40
2018-03-27T04:05:09.533Z,2.41
2018-03-27T04:07:35.558Z,2.34
2018-03-27T04:10:02.026Z,2.33
2018-03-27T04:12:28.031Z,2.21
2018-03-27T04:14:54.021Z,2.28
2018-03-27T04:17:20.042Z,2.15
2018-03-27T04:19:46.076Z,2.07
2018-03-27T04:22:12.109Z,1.99
2018-03-27T04:24:38.126Z,2.08
2018-03-27T04:27:04.152Z,2.00
2018-03-27T04:29:30.201Z,2.06
2018-03-27T04:31:56.266Z,2.12
2018-03-27T04:34:22.630Z,2.15
2018-03-27T04:36:48.622Z,2.10
2018-03-27T04:39:14.621Z,2.09
2018-03-27T04:41:40.706Z,2.07
2018-03-27T04:44:06.713Z,2.08
2018-03-27T04:46:32.758Z,2.16
2018-03-27T04:48:58.821Z,2.21
2018-03-27T04:51:24.808Z,2.26
2018-03-27T04:53:50.869Z,2.26
2018-03-27T04:56:16.923Z,2.23
2018-03-27T04:58:43.046Z,2.28
2018-03-27T05:01:09.319Z,2.31
2018-03-27T05:03:35.346Z,2.32
2018-03-27T05:06:01.355Z,2.34
2018-03-27T05:08:27.397Z,2.37
2018-03-27T05:10:53.435Z,2.06
2018-03-27T05:13:19.477Z,2.24
2018-03-27T05:15:45.546Z,2.20
2018-03-27T05:18:11.640Z,1.97
2018-03-27T05:20:37.663Z,1.92
2018-03-27T05:23:03.685Z,1.94
2018-03-27T05:25:29.744Z,1.91
2018-03-27T05:27:55.821Z,1.81
2018-03-27T05:30:21.919Z,1.90
2018-03-27T05:32:48.058Z,1.96
2018-03-27T05:35:14.190Z,2.12
2018-03-27T05:37:40.200Z,2.15
2018-03-27T05:40:06.210Z,1.82
2018-03-27T05:42:32.242Z,1.99
2018-03-27T05:44:58.281Z,1.76
2018-03-27T05:47:24.333Z,1.72
2018-03-27T05:49:50.367Z,1.88
2018-03-27T05:52:16.390Z,1.95
2018-03-27T05:54:43.018Z,1.87
2018-03-27T05:57:09.141Z,1.99
2018-03-27T05:59:35.197Z,1.99
2018-03-27T06:02:01.272Z,2.09
2018-03-27T06:04:27.319Z,2.16
2018-03-27T06:06:53.334Z,2.05
2018-03-27T06:09:19.385Z,2.07
2018-03-27T06:11:45.491Z,2.17
2018-03-27T06:14:11.528Z,2.24
2018-03-27T06:16:37.605Z,2.29
2018-03-27T06:19:04.282Z,2.21
2018-03-27T06:21:30.293Z,2.00
2018-03-27T06:23:56.320Z,2.10
2018-03-27T06:26:22.337Z,2.17
2018-03-27T06:28:48.381Z,2.12
2018-03-27T06:31:14.412Z,2.14
2018-03-27T06:33:40.546Z,2.13
2018-03-27T06:36:06.537Z,2.40
2018-03-27T06:38:32.938Z,2.54
2018-03-27T06:40:58.956Z,2.59
2018-03-27T06:43:24.973Z,2.78
2018-03-27T06:45:51.192Z,2.90
2018-03-27T06:48:17.191Z,3.03
2018-03-27T06:50:43.354Z,3.12
2018-03-27T06:53:09.404Z,3.25
2018-03-27T06:55:35.434Z,3.44
2018-03-27T06:58:01.451Z,3.61
2018-03-27T07:00:27.514Z,3.74
2018-03-27T07:02:53.601Z,4.03
2018-03-27T07:05:19.693Z,4.03
2018-03-27T07:07:45.657Z,4.15
2018-03-27T07:10:11.694Z,4.13
2018-03-27T07:12:37.748Z,4.33
2018-03-27T07:15:04.005Z,4.33
2018-03-27T07:17:30.034Z,4.34
2018-03-27T07:19:56.089Z,4.53
2018-03-27T07:22:22.073Z,4.58
2018-03-27T07:24:48.091Z,4.15
2018-03-27T07:27:14.169Z,4.28
2018-03-27T07:29:40.705Z,4.26
2018-03-27T07:32:06.977Z,4.27
2018-03-27T07:34:33.013Z,4.36
2018-03-27T07:36:59.168Z,4.80
2018-03-27T07:39:25.216Z,4.97
2018-03-27T07:41:51.244Z,4.67
2018-03-27T07:44:17.286Z,4.59
2018-03-27T07:46:43.364Z,4.65
2018-03-27T07:49:09.364Z,4.59
2018-03-27T07:51:35.409Z,4.82
2018-03-27T07:54:01.457Z,5.06
2018-03-27T07:56:27.471Z,5.57
2018-03-27T07:58:53.485Z,5.53
2018-03-27T08:01:19.536Z,5.64
2018-03-27T08:03:45.604Z,5.49
2018-03-27T08:06:11.731Z,5.55
2018-03-27T08:08:37.782Z,5.71
2018-03-27T08:11:03.950Z,5.91
2018-03-27T08:13:29.913Z,6.01
2018-03-27T08:15:55.968Z,6.03
2018-03-27T08:18:22.034Z,6.20
2018-03-27T08:20:48.086Z,6.11
2018-03-27T08:23:14.280Z,6.41
2018-03-27T08:25:40.781Z,6.53
2018-03-27T08:28:06.817Z,6.17
2018-03-27T08:30:32.850Z,6.18
2018-03-27T08:32:58.897Z,6.27
2018-03-27T08:35:24.996Z,6.17
2018-03-27T08:37:51.055Z,6.18
2018-03-27T08:40:17.273Z,6.35
2018-03-27T08:42:43.428Z,6.43
2018-03-27T08:45:09.449Z,6.57
2018-03-27T08:47:35.498Z,6.62
2018-03-27T08:50:01.505Z,6.95
2018-03-27T08:52:27.532Z,6.98
2018-03-27T08:54:53.875Z,6.75
2018-03-27T08:57:19.876Z,7.13
2018-03-27T08:59:45.925Z,7.27
2018-03-27T09:02:11.977Z,6.75
2018-03-27T09:04:38.012Z,6.81
2018-03-27T09:07:04.088Z,6.78
2018-03-27T09:09:30.049Z,6.80
2018-03-27T09:11:56.049Z,6.81
2018-03-27T09:14:22.052Z,6.80
2018-03-27T09:16:48.165Z,6.49
2018-03-27T09:19:14.190Z,6.57
2018-03-27T09:21:40.226Z,6.79
2018-03-27T09:24:06.347Z,6.99
2018-03-27T09:26:32.379Z,7.23
2018-03-27T09:28:58.413Z,7.28
2018-03-27T09:31:24.477Z,7.45
2018-03-27T09:33:50.510Z,7.82
2018-03-27T09:36:16.820Z,7.64
2018-03-27T09:38:42.872Z,7.59
2018-03-27T09:41:08.927Z,7.39
2018-03-27T09:43:34.954Z,7.91
2018-03-27T09:46:00.958Z,7.85
2018-03-27T09:48:27.003Z,7.76
2018-03-27T09:50:53.507Z,7.71
2018-03-27T09:53:19.520Z,7.93
2018-03-27T09:55:45.583Z,8.18
2018-03-27T09:58:11.686Z,8.29
2018-03-27T10:00:43.826Z,8.11
2018-03-27T10:03:10.004Z,8.58
2018-03-27T10:05:35.990Z,8.22
2018-03-27T10:08:02.168Z,7.93
2018-03-27T10:10:28.215Z,8.30
2018-03-27T10:12:54.865Z,8.30
2018-03-27T10:15:20.899Z,8.15
2018-03-27T10:17:46.929Z,8.26
2018-03-27T10:20:12.957Z,8.29
2018-03-27T10:22:39.016Z,8.33
2018-03-27T10:25:05.240Z,8.53
2018-03-27T10:27:31.259Z,8.84
2018-03-27T10:29:57.309Z,8.96
2018-03-27T10:32:23.578Z,8.92
2018-03-27T10:34:49.663Z,8.72
2018-03-27T10:37:15.725Z,8.77
2018-03-27T10:39:41.930Z,8.51
2018-03-27T10:42:07.973Z,8.66
2018-03-27T10:44:33.987Z,8.67
2018-03-27T10:47:00.066Z,8.50
2018-03-27T10:49:26.093Z,8.49
2018-03-27T10:51:52.175Z,8.49
2018-03-27T10:54:18.189Z,8.57
2018-03-27T10:56:44.226Z,8.73
2018-03-27T10:59:10.264Z,9.02
2018-03-27T11:01:36.307Z,9.37
2018-03-27T11:04:02.765Z,9.43
2018-03-27T11:06:28.798Z,9.54
2018-03-27T11:08:54.841Z,9.40
2018-03-27T11:11:20.939Z,9.00
2018-03-27T11:13:47.126Z,8.71
2018-03-27T11:16:13.179Z,8.62
2018-03-27T11:18:39.298Z,8.44
2018-03-27T11:21:05.337Z,8.29
2018-03-27T11:23:31.341Z,8.08
2018-03-27T11:25:57.346Z,7.89
2018-03-27T11:28:23.375Z,7.54
2018-03-27T11:30:49.651Z,7.36
2018-03-27T11:33:15.733Z,7.59
2018-03-27T11:35:41.790Z,8.01
2018-03-27T11:38:07.878Z,8.77
2018-03-27T11:40:33.895Z,9.07
2018-03-27T11:42:59.942Z,9.28
2018-03-27T11:45:25.950Z,9.78
2018-03-27T11:47:52.046Z,9.78
2018-03-27T11:50:18.066Z,9.66
2018-03-27T11:52:44.113Z,9.84
2018-03-27T11:55:10.110Z,9.93
2018-03-27T11:57:36.585Z,10.72
2018-03-27T12:00:02.608Z,10.01
2018-03-27T12:02:28.674Z,10.07
2018-03-27T12:05:06.115Z,10.45
2018-03-27T12:07:32.239Z,10.56
2018-03-27T12:09:58.234Z,9.97
2018-03-27T12:12:24.789Z,9.77
2018-03-27T12:14:50.957Z,10.55
2018-03-27T12:17:16.907Z,10.12
2018-03-27T12:19:43.710Z,9.85
2018-03-27T12:22:10.175Z,9.78
2018-03-27T12:24:36.200Z,9.50
2018-03-27T12:27:02.444Z,9.79
2018-03-27T12:29:28.470Z,9.88
2018-03-27T12:31:54.511Z,9.61
2018-03-27T12:34:20.552Z,9.45
2018-03-27T12:36:46.607Z,9.40
2018-03-27T12:39:12.629Z,9.52
2018-03-27T12:41:38.681Z,9.56
2018-03-27T12:44:04.818Z,9.44
2018-03-27T12:46:30.836Z,9.19
2018-03-27T12:48:56.857Z,8.87
2018-03-27T12:51:23.172Z,9.06
2018-03-27T12:53:49.212Z,9.30
2018-03-27T12:56:15.222Z,9.36
2018-03-27T12:58:41.274Z,10.41
2018-03-27T13:01:07.322Z,10.48
2018-03-27T13:03:33.386Z,10.33
2018-03-27T13:05:59.470Z,10.02
2018-03-27T13:08:25.527Z,9.83
2018-03-27T13:10:51.556Z,10.00
2018-03-27T13:13:17.670Z,9.47
2018-03-27T13:15:43.915Z,9.28
2018-03-27T13:18:10.030Z,9.09
2018-03-27T13:20:36.106Z,9.03
2018-03-27T13:23:02.363Z,9.50
2018-03-27T13:25:28.469Z,8.74
2018-03-27T13:27:54.531Z,8.78
2018-03-27T13:30:20.593Z,8.96
2018-03-27T13:32:46.780Z,9.22
2018-03-27T13:35:12.825Z,9.61
2018-03-27T13:37:38.857Z,9.55
2018-03-27T13:40:04.905Z,9.17
2018-03-27T13:42:30.889Z,9.88
2018-03-27T13:44:57.014Z,9.83
2018-03-27T13:47:23.079Z,9.21
2018-03-27T13:49:50.021Z,9.81
2018-03-27T13:52:16.074Z,10.22
2018-03-27T13:54:42.002Z,9.82
2018-03-27T13:57:08.071Z,10.51
2018-03-27T13:59:34.213Z,9.45
2018-03-27T14:02:00.269Z,10.00
2018-03-27T14:04:26.291Z,9.47
2018-03-27T14:06:52.921Z,8.95
2018-03-27T14:09:19.003Z,8.81
2018-03-27T14:11:45.009Z,8.71
2018-03-27T14:14:11.035Z,9.10
2018-03-27T14:16:37.117Z,8.68
2018-03-27T14:19:03.348Z,8.94
2018-03-27T14:21:29.374Z,8.79
2018-03-27T14:23:55.435Z,8.73
2018-03-27T14:26:21.513Z,8.63
2018-03-27T14:28:47.582Z,8.90
2018-03-27T14:31:15.764Z,9.57
2018-03-27T14:33:41.849Z,10.85
2018-03-27T14:36:07.971Z,11.53
2018-03-27T14:38:34.037Z,11.80
2018-03-27T14:41:00.142Z,11.98
2018-03-27T14:43:26.201Z,12.53
2018-03-27T14:45:52.210Z,12.49
2018-03-27T14:48:18.286Z,12.40
2018-03-27T14:50:44.312Z,12.44
2018-03-27T14:53:10.391Z,12.41
2018-03-27T14:55:36.477Z,11.37
2018-03-27T14:58:02.501Z,10.77
2018-03-27T15:00:28.581Z,11.47
2018-03-27T15:02:54.625Z,10.68
2018-03-27T15:05:20.675Z,10.30
2018-03-27T15:07:46.713Z,10.99
2018-03-27T15:10:12.753Z,9.70
2018-03-27T15:12:38.762Z,9.31
2018-03-27T15:15:04.999Z,9.68
2018-03-27T15:17:31.004Z,9.56
2018-03-27T15:19:57.079Z,9.54
2018-03-27T15:22:23.102Z,9.62
2018-03-27T15:24:49.148Z,9.48
2018-03-27T15:27:15.158Z,9.23
2018-03-27T15:29:41.210Z,9.29
2018-03-27T15:32:07.265Z,9.16
2018-03-27T15:34:33.237Z,9.00
2018-03-27T15:36:59.242Z,8.82
2018-03-27T15:39:25.360Z,8.80
2018-03-27T15:41:51.430Z,8.74
2018-03-27T15:44:17.465Z,8.49
2018-03-27T15:46:43.543Z,8.56
2018-03-27T15:49:09.626Z,8.54
2018-03-27T15:51:35.687Z,8.42
2018-03-27T15:54:01.727Z,8.24
2018-03-27T15:56:27.780Z,8.37
2018-03-27T15:58:53.771Z,8.57
2018-03-27T16:01:19.858Z,8.61
2018-03-27T16:03:45.915Z,8.53
2018-03-27T16:06:11.938Z,8.48
2018-03-27T16:08:37.971Z,8.52
2018-03-27T16:11:04.069Z,8.40
2018-03-27T16:13:30.164Z,8.61
2018-03-27T16:15:56.221Z,8.55
2018-03-27T16:18:22.417Z,8.68
2018-03-27T16:20:48.559Z,8.88
2018-03-27T16:23:14.655Z,8.61
2018-03-27T16:25:40.729Z,8.52
2018-03-27T16:28:06.750Z,8.54
2018-03-27T16:30:32.822Z,8.85
2018-03-27T16:32:58.917Z,8.92
2018-03-27T16:35:25.013Z,8.59
2018-03-27T16:37:51.099Z,8.89
2018-03-27T16:40:17.159Z,9.00
2018-03-27T16:42:43.196Z,8.80
2018-03-27T16:45:09.292Z,8.68
2018-03-27T16:47:35.533Z,8.57
2018-03-27T16:50:01.616Z,8.43
2018-03-27T16:52:27.696Z,8.49
2018-03-27T16:54:53.718Z,8.44
2018-03-27T16:57:19.764Z,8.47
2018-03-27T16:59:45.805Z,8.46
2018-03-27T17:02:11.810Z,8.50
2018-03-27T17:04:37.865Z,8.48
2018-03-27T17:07:03.892Z,8.35
2018-03-27T17:09:29.989Z,8.46
2018-03-27T17:11:56.021Z,8.48
2018-03-27T17:14:22.199Z,8.40
2018-03-27T17:16:48.241Z,8.31
2018-03-27T17:19:14.342Z,8.26
2018-03-27T17:21:40.494Z,8.18
2018-03-27T17:24:06.640Z,8.17
2018-03-27T17:26:32.713Z,8.18
2018-03-27T17:28:58.811Z,8.08
2018-03-27T17:31:24.875Z,7.97
2018-03-27T17:33:50.999Z,7.88
2018-03-27T17:36:17.050Z,7.84
2018-03-27T17:38:43.097Z,7.84
2018-03-27T17:41:09.137Z,7.96
2018-03-27T17:43:35.154Z,7.94
2018-03-27T17:46:01.876Z,7.80
2018-03-27T17:48:27.977Z,7.79
2018-03-27T17:50:54.387Z,7.88
2018-03-27T17:53:20.435Z,7.91
2018-03-27T17:55:46.479Z,7.83
2018-03-27T17:58:12.560Z,7.69
2018-03-27T18:00:38.716Z,7.64
2018-03-27T18:03:04.761Z,7.64
2018-03-27T18:05:30.777Z,7.55
2018-03-27T18:07:56.908Z,7.46
2018-03-27T18:10:22.987Z,7.42
2018-03-27T18:12:49.077Z,7.33
2018-03-27T18:15:15.113Z,7.26
2018-03-27T18:17:41.126Z,7.22
2018-03-27T18:20:07.186Z,7.08
2018-03-27T18:22:33.351Z,7.08
2018-03-27T18:24:59.410Z,7.07
2018-03-27T18:27:25.812Z,7.03
2018-03-27T18:29:51.825Z,6.96
2018-03-27T18:32:18.026Z,6.93
2018-03-27T18:34:44.058Z,6.90
2018-03-27T18:37:10.104Z,6.84
2018-03-27T18:39:36.219Z,6.83
2018-03-27T18:42:02.253Z,6.77
2018-03-27T18:44:28.370Z,6.71
2018-03-27T18:46:54.422Z,6.70
2018-03-27T18:49:20.507Z,6.70
2018-03-27T18:51:46.599Z,6.71
2018-03-27T18:54:12.690Z,6.56
2018-03-27T18:56:38.708Z,6.57
2018-03-27T18:59:04.838Z,6.61
2018-03-27T19:01:30.899Z,6.70
2018-03-27T19:03:56.990Z,6.73
2018-03-27T19:06:23.116Z,6.61
2018-03-27T19:08:49.178Z,6.56
2018-03-27T19:11:15.296Z,6.45
2018-03-27T19:13:41.403Z,6.42
2018-03-27T19:16:07.514Z,6.41
2018-03-27T19:18:33.576Z,6.29
2018-03-27T19:21:00.056Z,6.30
2018-03-27T19:23:26.151Z,6.35
2018-03-27T19:25:52.238Z,6.30
2018-03-27T19:28:18.434Z,6.33
2018-03-27T19:30:44.472Z,6.27
2018-03-27T19:33:10.523Z,6.14
2018-03-27T19:35:36.685Z,6.11
2018-03-27T19:38:02.688Z,5.98
2018-03-27T19:40:28.750Z,5.86
2018-03-27T19:42:54.776Z,5.90
2018-03-27T19:45:20.837Z,5.83
2018-03-27T19:47:46.927Z,5.79
2018-03-27T19:50:16.365Z,5.69
2018-03-27T19:52:42.421Z,5.78
2018-03-27T19:55:08.471Z,5.81
2018-03-27T19:57:35.868Z,5.75
2018-03-27T20:00:02.001Z,5.78
2018-03-27T20:02:28.112Z,5.67
2018-03-27T20:04:54.266Z,5.62
2018-03-27T20:07:20.298Z,5.74
2018-03-27T20:09:46.391Z,5.62
2018-03-27T20:12:12.486Z,5.48
2018-03-27T20:14:38.510Z,5.69
2018-03-27T20:17:04.529Z,5.86
2018-03-27T20:19:30.542Z,5.90
2018-03-27T20:21:56.606Z,5.80
2018-03-27T20:24:22.644Z,5.77
2018-03-27T20:26:48.682Z,5.62
2018-03-27T20:29:14.708Z,5.62
2018-03-27T20:31:40.805Z,5.64
2018-03-27T20:34:06.863Z,5.49
2018-03-27T20:36:33.090Z,5.41
2018-03-27T20:38:59.137Z,5.44
2018-03-27T20:41:25.227Z,5.34
2018-03-27T20:43:51.313Z,5.32
2018-03-27T20:46:17.374Z,5.27
2018-03-27T20:48:43.412Z,5.20
2018-03-27T20:51:09.537Z,5.17
2018-03-27T20:53:35.662Z,5.19
2018-03-27T20:56:02.661Z,5.28
2018-03-27T20:58:28.656Z,5.17
2018-03-27T21:00:54.810Z,5.15
2018-03-27T21:03:20.894Z,5.08
2018-03-27T21:05:47.002Z,5.28
2018-03-27T21:08:13.277Z,5.49
2018-03-27T21:10:39.281Z,5.51
2018-03-27T21:13:05.323Z,5.47
2018-03-27T21:15:31.405Z,5.56
2018-03-27T21:17:57.417Z,5.53
2018-03-27T21:20:23.393Z,5.38
2018-03-27T21:22:49.437Z,5.27
2018-03-27T21:25:15.504Z,5.36
2018-03-27T21:27:41.529Z,5.45
2018-03-27T21:30:07.570Z,5.46
2018-03-27T21:32:33.627Z,5.39
2018-03-27T21:34:59.702Z,5.34
2018-03-27T21:37:25.659Z,5.29
2018-03-27T21:39:51.697Z,5.32
2018-03-27T21:42:17.846Z,5.23
2018-03-27T21:44:43.956Z,5.19
2018-03-27T21:47:10.042Z,5.09
2018-03-27T21:49:36.108Z,5.19
2018-03-27T21:52:02.178Z,5.21
2018-03-27T21:54:28.272Z,5.11
2018-03-27T21:56:54.647Z,5.38
2018-03-27T21:59:20.778Z,5.39
2018-03-27T22:01:46.831Z,5.36
2018-03-27T22:04:12.923Z,5.59
2018-03-27T22:06:38.950Z,5.62
2018-03-27T22:09:11.902Z,5.68
2018-03-27T22:11:37.977Z,5.72
2018-03-27T22:14:04.029Z,5.61
2018-03-27T22:16:30.067Z,5.70
2018-03-27T22:18:56.838Z,5.70
2018-03-27T22:21:22.896Z,5.62
2018-03-27T22:23:48.888Z,5.59
2018-03-27T22:26:14.912Z,5.69
2018-03-27T22:28:40.928Z,5.75
2018-03-27T22:31:06.929Z,5.73
2018-03-27T22:33:32.983Z,5.79
2018-03-27T22:35:58.992Z,5.73
2018-03-27T22:38:25.038Z,5.75
2018-03-27T22:40:51.070Z,5.77
2018-03-27T22:43:17.102Z,5.83
2018-03-27T22:45:43.161Z,5.76
2018-03-27T22:48:09.259Z,5.75
2018-03-27T22:50:35.245Z,5.71
2018-03-27T22:53:01.214Z,5.81
2018-03-27T22:55:27.288Z,5.68
2018-03-27T22:57:53.294Z,5.70
2018-03-27T23:00:20.245Z,5.71
2018-03-27T23:02:46.219Z,5.68
2018-03-27T23:05:12.273Z,5.68
2018-03-27T23:07:38.303Z,5.72
2018-03-27T23:10:04.467Z,5.68
2018-03-27T23:12:30.486Z,5.59
2018-03-27T23:14:56.505Z,5.65
2018-03-27T23:17:22.531Z,5.67
2018-03-27T23:19:48.581Z,5.60
2018-03-27T23:22:26.655Z,5.52
2018-03-27T23:24:52.682Z,5.46
2018-03-27T23:27:18.628Z,5.53
2018-03-27T23:29:44.662Z,5.62
2018-03-27T23:32:10.720Z,5.62
2018-03-27T23:34:36.717Z,5.43
2018-03-27T23:37:02.746Z,5.45
2018-03-27T23:39:28.824Z,5.52
2018-03-27T23:41:54.887Z,5.43
2018-03-27T23:44:20.859Z,5.31
2018-03-27T23:46:46.901Z,5.30
2018-03-27T23:49:12.904Z,5.18
2018-03-27T23:51:38.946Z,5.34
2018-03-27T23:54:05.008Z,5.27
2018-03-27T23:56:31.124Z,5.29
2018-03-27T23:58:57.127Z,5.29
